sensor_id;sensor_type;location;lat;lon;timestamp;pressure;altitude;pressure_sealevel;temperature;humidity
13367;BME280;6752;52.612;13.630;2023-06-22T00:02:03;101178.84;;;18.99;100.00
13367;BME280;6752;52.612;13.630;2023-06-22T00:07:05;101193.78;;;18.88;100.00
13367;BME280;6752;52.612;13.630;2023-06-22T00:12:08;101196.49;;;18.96;100.00
13367;BME280;6752;52.612;13.630;2023-06-22T00:17:10;101198.16;;;18.97;100.00
13367;BME280;6752;52.612;13.630;2023-06-22T00:22:12;101204.83;;;18.88;100.00
13367;BME280;6752;52.612;13.630;2023-06-22T00:27:15;101206.59;;;18.83;100.00
13367;BME280;6752;52.612;13.630;2023-06-22T00:32:17;101214.45;;;18.69;100.00
13367;BME280;6752;52.612;13.630;2023-06-22T00:37:19;101224.67;;;18.20;100.00
13367;BME280;6752;52.612;13.630;2023-06-22T00:42:22;101234.46;;;18.43;100.00
13367;BME280;6752;52.612;13.630;2023-06-22T00:47:24;101234.85;;;18.41;100.00
13367;BME280;6752;52.612;13.630;2023-06-22T00:52:27;101238.52;;;18.36;100.00
13367;BME280;6752;52.612;13.630;2023-06-22T00:57:29;101242.20;;;18.44;100.00
13367;BME280;6752;52.612;13.630;2023-06-22T01:02:31;101234.19;;;18.56;100.00
13367;BME280;6752;52.612;13.630;2023-06-22T01:12:40;101246.73;;;18.28;100.00
13367;BME280;6752;52.612;13.630;2023-06-22T01:17:42;101247.98;;;18.29;100.00
13367;BME280;6752;52.612;13.630;2023-06-22T01:33:25;101256.08;;;17.94;100.00
13367;BME280;6752;52.612;13.630;2023-06-22T01:38:27;101249.97;;;17.79;100.00
13367;BME280;6752;52.612;13.630;2023-06-22T01:43:29;101254.27;;;17.81;100.00
13367;BME280;6752;52.612;13.630;2023-06-22T01:48:31;101264.52;;;17.85;100.00
13367;BME280;6752;52.612;13.630;2023-06-22T01:53:33;101265.45;;;17.82;100.00
13367;BME280;6752;52.612;13.630;2023-06-22T01:58:37;101266.92;;;17.62;100.00
13367;BME280;6752;52.612;13.630;2023-06-22T02:03:44;101277.56;;;17.64;100.00
13367;BME280;6752;52.612;13.630;2023-06-22T02:08:59;101276.12;;;17.59;100.00
13367;BME280;6752;52.612;13.630;2023-06-22T02:13:51;101274.86;;;17.50;100.00
13367;BME280;6752;52.612;13.630;2023-06-22T02:18:53;101275.05;;;17.44;100.00
13367;BME280;6752;52.612;13.630;2023-06-22T02:23:56;101276.48;;;17.49;100.00
13367;BME280;6752;52.612;13.630;2023-06-22T02:28:58;101275.45;;;17.44;100.00
13367;BME280;6752;52.612;13.630;2023-06-22T02:34:01;101273.91;;;17.25;100.00
13367;BME280;6752;52.612;13.630;2023-06-22T02:39:03;101284.48;;;17.39;100.00
13367;BME280;6752;52.612;13.630;2023-06-22T02:44:05;101287.20;;;17.37;100.00
13367;BME280;6752;52.612;13.630;2023-06-22T02:49:08;101293.33;;;17.41;100.00
13367;BME280;6752;52.612;13.630;2023-06-22T02:54:10;101302.84;;;17.50;100.00
13367;BME280;6752;52.612;13.630;2023-06-22T02:59:12;101300.31;;;17.38;100.00
13367;BME280;6752;52.612;13.630;2023-06-22T03:04:15;101292.38;;;17.42;100.00
13367;BME280;6752;52.612;13.630;2023-06-22T03:09:17;101298.50;;;17.46;100.00
13367;BME280;6752;52.612;13.630;2023-06-22T03:14:19;101291.79;;;17.56;100.00
13367;BME280;6752;52.612;13.630;2023-06-22T03:19:24;101298.95;;;17.66;100.00
13367;BME280;6752;52.612;13.630;2023-06-22T03:24:27;101294.37;;;17.71;100.00
13367;BME280;6752;52.612;13.630;2023-06-22T03:29:29;101286.52;;;17.72;100.00
13367;BME280;6752;52.612;13.630;2023-06-22T03:34:31;101301.48;;;17.76;100.00
13367;BME280;6752;52.612;13.630;2023-06-22T03:39:37;101294.63;;;17.78;100.00
13367;BME280;6752;52.612;13.630;2023-06-22T03:44:40;101283.12;;;17.84;100.00
13367;BME280;6752;52.612;13.630;2023-06-22T03:49:42;101288.54;;;17.87;100.00
13367;BME280;6752;52.612;13.630;2023-06-22T03:54:45;101291.78;;;18.01;100.00
13367;BME280;6752;52.612;13.630;2023-06-22T03:59:47;101285.13;;;18.10;100.00
13367;BME280;6752;52.612;13.630;2023-06-22T04:04:50;101293.45;;;18.24;100.00
13367;BME280;6752;52.612;13.630;2023-06-22T04:09:52;101290.29;;;18.37;100.00
13367;BME280;6752;52.612;13.630;2023-06-22T04:14:54;101286.02;;;18.62;100.00
13367;BME280;6752;52.612;13.630;2023-06-22T04:19:57;101283.83;;;18.73;100.00
13367;BME280;6752;52.612;13.630;2023-06-22T04:24:59;101292.06;;;18.94;100.00
13367;BME280;6752;52.612;13.630;2023-06-22T04:30:06;101294.80;;;19.08;100.00
13367;BME280;6752;52.612;13.630;2023-06-22T04:35:08;101292.65;;;19.31;100.00
13367;BME280;6752;52.612;13.630;2023-06-22T04:40:10;101299.77;;;19.54;100.00
13367;BME280;6752;52.612;13.630;2023-06-22T04:45:12;101310.55;;;19.95;100.00
13367;BME280;6752;52.612;13.630;2023-06-22T04:50:15;101310.67;;;20.18;100.00
13367;BME280;6752;52.612;13.630;2023-06-22T04:55:18;101312.63;;;20.51;100.00
13367;BME280;6752;52.612;13.630;2023-06-22T05:00:20;101305.27;;;20.92;100.00
13367;BME280;6752;52.612;13.630;2023-06-22T05:05:22;101321.34;;;21.06;100.00
13367;BME280;6752;52.612;13.630;2023-06-22T05:10:25;101331.39;;;21.45;100.00
13367;BME280;6752;52.612;13.630;2023-06-22T05:15:27;101322.36;;;21.69;100.00
13367;BME280;6752;52.612;13.630;2023-06-22T05:20:29;101325.80;;;21.88;100.00
13367;BME280;6752;52.612;13.630;2023-06-22T05:25:32;101323.83;;;21.96;100.00
13367;BME280;6752;52.612;13.630;2023-06-22T05:30:34;101330.49;;;22.45;100.00
13367;BME280;6752;52.612;13.630;2023-06-22T05:35:36;101330.06;;;22.53;100.00
13367;BME280;6752;52.612;13.630;2023-06-22T05:40:39;101338.13;;;22.79;100.00
13367;BME280;6752;52.612;13.630;2023-06-22T05:45:41;101341.16;;;22.87;98.58
13367;BME280;6752;52.612;13.630;2023-06-22T05:50:43;101333.47;;;22.64;92.16
13367;BME280;6752;52.612;13.630;2023-06-22T05:55:46;101343.97;;;22.50;89.75
13367;BME280;6752;52.612;13.630;2023-06-22T06:00:48;101349.73;;;22.31;91.60
13367;BME280;6752;52.612;13.630;2023-06-22T06:05:51;101357.03;;;22.82;90.80
13367;BME280;6752;52.612;13.630;2023-06-22T06:10:53;101362.78;;;23.37;85.52
13367;BME280;6752;52.612;13.630;2023-06-22T06:15:55;101353.45;;;23.91;82.09
13367;BME280;6752;52.612;13.630;2023-06-22T06:20:58;101354.77;;;24.23;79.25
13367;BME280;6752;52.612;13.630;2023-06-22T06:26:00;101353.14;;;24.19;74.79
13367;BME280;6752;52.612;13.630;2023-06-22T06:31:05;101347.61;;;24.64;74.75
13367;BME280;6752;52.612;13.630;2023-06-22T06:36:03;101351.63;;;25.24;69.11
13367;BME280;6752;52.612;13.630;2023-06-22T06:41:05;101341.55;;;25.00;70.51
13367;BME280;6752;52.612;13.630;2023-06-22T06:46:07;101346.80;;;25.13;69.35
13367;BME280;6752;52.612;13.630;2023-06-22T06:51:10;101356.14;;;25.29;68.37
13367;BME280;6752;52.612;13.630;2023-06-22T06:56:13;101366.45;;;25.22;68.45
13367;BME280;6752;52.612;13.630;2023-06-22T07:01:15;101352.38;;;25.39;67.95
13367;BME280;6752;52.612;13.630;2023-06-22T07:06:18;101348.37;;;25.87;69.66
13367;BME280;6752;52.612;13.630;2023-06-22T07:11:20;101332.90;;;26.43;63.80
13367;BME280;6752;52.612;13.630;2023-06-22T07:16:22;101327.48;;;26.19;63.23
13367;BME280;6752;52.612;13.630;2023-06-22T07:21:28;101325.39;;;26.72;61.53
13367;BME280;6752;52.612;13.630;2023-06-22T07:26:27;101332.36;;;26.75;61.24
13367;BME280;6752;52.612;13.630;2023-06-22T07:31:29;101325.42;;;26.66;60.59
13367;BME280;6752;52.612;13.630;2023-06-22T07:36:32;101312.09;;;26.99;58.75
13367;BME280;6752;52.612;13.630;2023-06-22T07:41:34;101298.01;;;27.48;57.67
13367;BME280;6752;52.612;13.630;2023-06-22T07:46:37;101295.28;;;28.89;55.15
13367;BME280;6752;52.612;13.630;2023-06-22T07:51:39;101293.20;;;27.87;55.01
13367;BME280;6752;52.612;13.630;2023-06-22T07:56:41;101292.16;;;28.14;55.74
13367;BME280;6752;52.612;13.630;2023-06-22T08:01:44;101288.78;;;28.30;55.92
13367;BME280;6752;52.612;13.630;2023-06-22T08:06:46;101281.17;;;28.54;54.94
13367;BME280;6752;52.612;13.630;2023-06-22T08:11:48;101282.03;;;28.68;54.63
13367;BME280;6752;52.612;13.630;2023-06-22T08:16:51;101284.86;;;27.95;53.92
13367;BME280;6752;52.612;13.630;2023-06-22T08:21:53;101287.19;;;27.60;53.68
13367;BME280;6752;52.612;13.630;2023-06-22T08:26:56;101286.95;;;28.10;53.94
13367;BME280;6752;52.612;13.630;2023-06-22T08:31:58;101283.31;;;28.53;53.04
13367;BME280;6752;52.612;13.630;2023-06-22T08:37:00;101295.50;;;28.20;55.67
13367;BME280;6752;52.612;13.630;2023-06-22T08:42:03;101290.13;;;27.93;54.61
13367;BME280;6752;52.612;13.630;2023-06-22T08:47:05;101296.71;;;27.28;56.16
13367;BME280;6752;52.612;13.630;2023-06-22T08:52:08;101296.97;;;27.29;54.30
13367;BME280;6752;52.612;13.630;2023-06-22T08:57:10;101295.53;;;27.47;54.43
13367;BME280;6752;52.612;13.630;2023-06-22T09:02:12;101292.77;;;27.78;54.34
13367;BME280;6752;52.612;13.630;2023-06-22T09:07:15;101298.19;;;28.84;54.34
13367;BME280;6752;52.612;13.630;2023-06-22T09:12:20;101291.20;;;28.18;55.52
13367;BME280;6752;52.612;13.630;2023-06-22T09:17:22;101282.12;;;27.73;53.94
13367;BME280;6752;52.612;13.630;2023-06-22T09:22:24;101279.53;;;28.09;54.51
13367;BME280;6752;52.612;13.630;2023-06-22T09:27:27;101272.84;;;27.84;53.68
13367;BME280;6752;52.612;13.630;2023-06-22T09:32:29;101270.31;;;28.66;51.61
13367;BME280;6752;52.612;13.630;2023-06-22T09:37:31;101273.95;;;29.72;52.67
13367;BME280;6752;52.612;13.630;2023-06-22T09:42:34;101265.52;;;28.71;50.68
13367;BME280;6752;52.612;13.630;2023-06-22T09:47:36;101261.58;;;29.06;51.91
13367;BME280;6752;52.612;13.630;2023-06-22T09:52:38;101255.19;;;28.19;48.64
13367;BME280;6752;52.612;13.630;2023-06-22T09:57:41;101249.05;;;28.99;48.45
13367;BME280;6752;52.612;13.630;2023-06-22T10:02:46;101248.64;;;29.44;47.97
13367;BME280;6752;52.612;13.630;2023-06-22T10:07:45;101262.28;;;29.31;47.66
13367;BME280;6752;52.612;13.630;2023-06-22T10:12:54;101253.81;;;30.73;47.80
13367;BME280;6752;52.612;13.630;2023-06-22T10:17:50;101264.30;;;30.53;47.60
13367;BME280;6752;52.612;13.630;2023-06-22T10:22:52;101250.09;;;31.45;45.01
13367;BME280;6752;52.612;13.630;2023-06-22T10:27:55;101250.64;;;31.27;45.28
13367;BME280;6752;52.612;13.630;2023-06-22T10:32:57;101252.59;;;32.75;45.79
13367;BME280;6752;52.612;13.630;2023-06-22T10:37:59;101240.16;;;31.11;42.37
13367;BME280;6752;52.612;13.630;2023-06-22T10:43:02;101239.86;;;30.35;45.22
13367;BME280;6752;52.612;13.630;2023-06-22T10:48:04;101228.89;;;30.94;44.67
13367;BME280;6752;52.612;13.630;2023-06-22T10:53:07;101226.94;;;31.28;45.09
13367;BME280;6752;52.612;13.630;2023-06-22T10:58:09;101216.20;;;31.77;42.74
13367;BME280;6752;52.612;13.630;2023-06-22T11:03:11;101209.23;;;31.00;44.50
13367;BME280;6752;52.612;13.630;2023-06-22T11:08:14;101189.63;;;31.31;42.11
13367;BME280;6752;52.612;13.630;2023-06-22T11:13:16;101175.31;;;31.89;43.95
13367;BME280;6752;52.612;13.630;2023-06-22T11:18:19;101190.45;;;31.25;45.82
13367;BME280;6752;52.612;13.630;2023-06-22T11:23:21;101183.47;;;32.04;43.33
13367;BME280;6752;52.612;13.630;2023-06-22T11:28:23;101189.32;;;30.78;43.69
13367;BME280;6752;52.612;13.630;2023-06-22T11:33:26;101182.91;;;30.07;45.22
13367;BME280;6752;52.612;13.630;2023-06-22T11:38:28;101181.12;;;31.29;44.19
13367;BME280;6752;52.612;13.630;2023-06-22T11:43:35;101163.57;;;32.44;42.73
13367;BME280;6752;52.612;13.630;2023-06-22T11:48:33;101173.89;;;31.13;44.07
13367;BME280;6752;52.612;13.630;2023-06-22T11:53:35;101189.25;;;30.66;44.38
13367;BME280;6752;52.612;13.630;2023-06-22T11:58:37;101178.48;;;31.28;44.07
13367;BME280;6752;52.612;13.630;2023-06-22T12:03:40;101182.06;;;31.39;44.51
13367;BME280;6752;52.612;13.630;2023-06-22T12:08:42;101175.97;;;31.96;45.29
13367;BME280;6752;52.612;13.630;2023-06-22T12:13:44;101169.19;;;31.93;44.11
13367;BME280;6752;52.612;13.630;2023-06-22T12:18:47;101168.81;;;32.91;45.72
13367;BME280;6752;52.612;13.630;2023-06-22T12:23:49;101151.41;;;33.19;44.52
13367;BME280;6752;52.612;13.630;2023-06-22T12:28:51;101153.46;;;33.13;46.47
13367;BME280;6752;52.612;13.630;2023-06-22T12:33:54;101146.03;;;31.33;44.01
13367;BME280;6752;52.612;13.630;2023-06-22T12:38:56;101145.23;;;31.50;43.24
13367;BME280;6752;52.612;13.630;2023-06-22T12:43:59;101132.77;;;31.39;45.01
13367;BME280;6752;52.612;13.630;2023-06-22T12:49:01;101133.66;;;31.29;45.11
13367;BME280;6752;52.612;13.630;2023-06-22T12:54:03;101105.77;;;31.44;44.03
13367;BME280;6752;52.612;13.630;2023-06-22T12:59:06;101116.23;;;32.31;44.47
13367;BME280;6752;52.612;13.630;2023-06-22T13:04:08;101108.10;;;31.77;43.78
13367;BME280;6752;52.612;13.630;2023-06-22T13:09:11;101101.50;;;31.24;45.45
13367;BME280;6752;52.612;13.630;2023-06-22T13:14:13;101078.41;;;32.68;43.81
13367;BME280;6752;52.612;13.630;2023-06-22T13:19:15;101091.51;;;32.54;44.71
13367;BME280;6752;52.612;13.630;2023-06-22T13:24:18;101087.71;;;32.08;45.01
13367;BME280;6752;52.612;13.630;2023-06-22T13:29:20;101083.83;;;32.75;45.26
13367;BME280;6752;52.612;13.630;2023-06-22T13:34:22;101061.55;;;32.42;43.56
13367;BME280;6752;52.612;13.630;2023-06-22T13:39:25;101070.19;;;31.70;46.08
13367;BME280;6752;52.612;13.630;2023-06-22T13:44:27;101065.65;;;31.35;45.49
13367;BME280;6752;52.612;13.630;2023-06-22T13:49:30;101065.38;;;31.16;46.20
13367;BME280;6752;52.612;13.630;2023-06-22T13:54:32;101067.83;;;31.52;45.88
13367;BME280;6752;52.612;13.630;2023-06-22T13:59:34;101055.42;;;31.79;45.34
13367;BME280;6752;52.612;13.630;2023-06-22T14:04:37;101051.67;;;30.92;46.13
13367;BME280;6752;52.612;13.630;2023-06-22T14:09:39;101047.02;;;31.14;45.70
13367;BME280;6752;52.612;13.630;2023-06-22T14:14:42;101020.36;;;30.81;45.81
13367;BME280;6752;52.612;13.630;2023-06-22T14:19:44;101017.61;;;31.30;46.98
13367;BME280;6752;52.612;13.630;2023-06-22T14:24:50;101014.23;;;31.08;47.72
13367;BME280;6752;52.612;13.630;2023-06-22T14:29:49;100999.84;;;30.87;47.59
13367;BME280;6752;52.612;13.630;2023-06-22T14:34:51;100995.34;;;30.45;46.97
13367;BME280;6752;52.612;13.630;2023-06-22T14:39:53;100991.58;;;30.98;48.17
13367;BME280;6752;52.612;13.630;2023-06-22T14:44:56;100986.42;;;31.12;49.72
13367;BME280;6752;52.612;13.630;2023-06-22T14:49:58;100988.27;;;30.65;47.30
13367;BME280;6752;52.612;13.630;2023-06-22T14:55:01;100983.81;;;30.09;48.35
13367;BME280;6752;52.612;13.630;2023-06-22T15:00:03;100979.92;;;30.24;49.16
13367;BME280;6752;52.612;13.630;2023-06-22T15:05:05;100962.17;;;30.44;49.81
13367;BME280;6752;52.612;13.630;2023-06-22T15:10:08;100955.50;;;29.99;48.90
13367;BME280;6752;52.612;13.630;2023-06-22T15:15:10;100932.65;;;30.21;49.45
13367;BME280;6752;52.612;13.630;2023-06-22T15:20:12;100929.42;;;30.15;48.87
13367;BME280;6752;52.612;13.630;2023-06-22T15:25:14;100933.87;;;29.89;48.92
13367;BME280;6752;52.612;13.630;2023-06-22T15:30:17;100926.55;;;29.86;49.41
13367;BME280;6752;52.612;13.630;2023-06-22T15:35:19;100932.55;;;29.70;49.46
13367;BME280;6752;52.612;13.630;2023-06-22T15:40:22;100924.87;;;29.69;49.92
13367;BME280;6752;52.612;13.630;2023-06-22T15:45:24;100920.29;;;29.81;49.87
13367;BME280;6752;52.612;13.630;2023-06-22T15:50:26;100918.11;;;29.86;50.34
13367;BME280;6752;52.612;13.630;2023-06-22T15:55:29;100900.92;;;29.57;49.96
13367;BME280;6752;52.612;13.630;2023-06-22T16:00:31;100896.17;;;29.53;51.71
13367;BME280;6752;52.612;13.630;2023-06-22T16:05:34;100889.55;;;29.43;51.37
13367;BME280;6752;52.612;13.630;2023-06-22T16:10:36;100878.51;;;29.63;51.69
13367;BME280;6752;52.612;13.630;2023-06-22T16:15:38;100884.28;;;29.41;52.67
13367;BME280;6752;52.612;13.630;2023-06-22T16:20:41;100876.50;;;29.22;52.27
13367;BME280;6752;52.612;13.630;2023-06-22T16:25:43;100861.19;;;28.94;51.66
13367;BME280;6752;52.612;13.630;2023-06-22T16:30:45;100859.75;;;28.88;52.06
13367;BME280;6752;52.612;13.630;2023-06-22T16:35:48;100856.84;;;28.90;52.11
13367;BME280;6752;52.612;13.630;2023-06-22T16:40:50;100846.45;;;28.53;52.91
13367;BME280;6752;52.612;13.630;2023-06-22T16:45:53;100810.63;;;28.58;52.77
13367;BME280;6752;52.612;13.630;2023-06-22T16:50:55;100819.22;;;28.43;52.56
13367;BME280;6752;52.612;13.630;2023-06-22T16:55:57;100816.68;;;28.16;53.33
13367;BME280;6752;52.612;13.630;2023-06-22T17:00:59;100803.19;;;27.82;54.06
13367;BME280;6752;52.612;13.630;2023-06-22T17:06:01;100789.30;;;27.75;54.80
13367;BME280;6752;52.612;13.630;2023-06-22T17:11:03;100781.56;;;27.63;55.27
13367;BME280;6752;52.612;13.630;2023-06-22T17:16:06;100779.64;;;27.61;54.14
13367;BME280;6752;52.612;13.630;2023-06-22T17:21:10;100780.49;;;27.44;54.58
13367;BME280;6752;52.612;13.630;2023-06-22T17:26:11;100792.13;;;27.32;55.20
13367;BME280;6752;52.612;13.630;2023-06-22T17:31:13;100788.18;;;27.33;56.27
13367;BME280;6752;52.612;13.630;2023-06-22T17:36:15;100782.74;;;27.19;56.94
13367;BME280;6752;52.612;13.630;2023-06-22T17:41:18;100764.09;;;27.04;57.34
13367;BME280;6752;52.612;13.630;2023-06-22T17:46:20;100767.36;;;26.97;57.81
13367;BME280;6752;52.612;13.630;2023-06-22T17:51:22;100767.83;;;26.82;58.52
13367;BME280;6752;52.612;13.630;2023-06-22T17:56:25;100757.77;;;26.72;59.19
13367;BME280;6752;52.612;13.630;2023-06-22T18:01:36;100731.13;;;26.58;58.63
13367;BME280;6752;52.612;13.630;2023-06-22T18:06:42;100717.65;;;26.51;58.45
13367;BME280;6752;52.612;13.630;2023-06-22T18:11:47;100721.97;;;26.37;59.24
13367;BME280;6752;52.612;13.630;2023-06-22T18:16:49;100721.77;;;26.34;59.92
13367;BME280;6752;52.612;13.630;2023-06-22T18:21:51;100721.30;;;26.12;61.36
13367;BME280;6752;52.612;13.630;2023-06-22T18:26:53;100710.16;;;25.96;61.78
13367;BME280;6752;52.612;13.630;2023-06-22T18:31:55;100696.36;;;25.76;62.58
13367;BME280;6752;52.612;13.630;2023-06-22T18:36:58;100693.83;;;25.66;62.60
13367;BME280;6752;52.612;13.630;2023-06-22T18:42:00;100701.03;;;25.58;63.61
13367;BME280;6752;52.612;13.630;2023-06-22T18:47:03;100689.84;;;25.38;64.11
13367;BME280;6752;52.612;13.630;2023-06-22T18:52:15;100687.44;;;25.34;63.82
13367;BME280;6752;52.612;13.630;2023-06-22T18:57:29;100686.12;;;25.20;64.27
13367;BME280;6752;52.612;13.630;2023-06-22T19:07:59;100675.73;;;25.01;66.01
13367;BME280;6752;52.612;13.630;2023-06-22T19:18:24;100648.15;;;24.66;67.78
13367;BME280;6752;52.612;13.630;2023-06-22T19:23:36;100659.71;;;24.59;67.65
13367;BME280;6752;52.612;13.630;2023-06-22T19:28:47;100679.47;;;24.49;67.72
13367;BME280;6752;52.612;13.630;2023-06-22T19:33:45;100668.64;;;24.48;68.47
13367;BME280;6752;52.612;13.630;2023-06-22T19:38:48;100670.27;;;24.31;69.00
13367;BME280;6752;52.612;13.630;2023-06-22T19:43:54;100656.58;;;24.14;69.27
13367;BME280;6752;52.612;13.630;2023-06-22T19:48:59;100656.58;;;24.14;69.20
13367;BME280;6752;52.612;13.630;2023-06-22T19:54:07;100660.34;;;24.13;68.04
13367;BME280;6752;52.612;13.630;2023-06-22T19:59:10;100654.61;;;24.07;68.42
13367;BME280;6752;52.612;13.630;2023-06-22T20:04:12;100652.66;;;24.01;68.43
13367;BME280;6752;52.612;13.630;2023-06-22T20:09:14;100640.51;;;23.97;68.41
13367;BME280;6752;52.612;13.630;2023-06-22T20:14:19;100601.55;;;23.90;68.40
13367;BME280;6752;52.612;13.630;2023-06-22T20:19:27;100591.08;;;23.84;68.23
13367;BME280;6752;52.612;13.630;2023-06-22T20:24:26;100584.34;;;23.81;67.02
13367;BME280;6752;52.612;13.630;2023-06-22T20:29:32;100589.43;;;23.83;65.79
13367;BME280;6752;52.612;13.630;2023-06-22T20:34:39;100603.56;;;23.80;64.35
13367;BME280;6752;52.612;13.630;2023-06-22T20:39:36;100623.50;;;23.85;63.52
13367;BME280;6752;52.612;13.630;2023-06-22T20:44:38;100652.06;;;23.77;64.83
13367;BME280;6752;52.612;13.630;2023-06-22T20:49:41;100684.41;;;23.59;68.21
13367;BME280;6752;52.612;13.630;2023-06-22T20:54:43;100734.70;;;23.46;72.48
13367;BME280;6752;52.612;13.630;2023-06-22T20:59:46;100875.30;;;22.77;82.05
13367;BME280;6752;52.612;13.630;2023-06-22T21:04:48;100891.18;;;21.75;100.00
13367;BME280;6752;52.612;13.630;2023-06-22T21:09:50;100763.94;;;21.54;100.00
13367;BME280;6752;52.612;13.630;2023-06-22T21:14:52;100667.31;;;21.03;100.00
13367;BME280;6752;52.612;13.630;2023-06-22T21:19:54;100656.72;;;20.96;100.00
13367;BME280;6752;52.612;13.630;2023-06-22T21:25:10;100707.31;;;21.11;100.00
13367;BME280;6752;52.612;13.630;2023-06-22T21:30:09;100732.11;;;21.29;100.00
13367;BME280;6752;52.612;13.630;2023-06-22T21:35:10;100722.70;;;21.28;100.00
13367;BME280;6752;52.612;13.630;2023-06-22T21:40:13;100775.64;;;21.09;100.00
13367;BME280;6752;52.612;13.630;2023-06-22T21:45:15;100826.11;;;21.06;100.00
13367;BME280;6752;52.612;13.630;2023-06-22T21:50:18;100828.69;;;20.90;100.00
13367;BME280;6752;52.612;13.630;2023-06-22T21:55:20;100888.16;;;20.43;100.00
13367;BME280;6752;52.612;13.630;2023-06-22T22:00:22;100967.91;;;20.13;100.00
13367;BME280;6752;52.612;13.630;2023-06-22T22:05:25;100971.77;;;20.04;100.00
13367;BME280;6752;52.612;13.630;2023-06-22T22:10:27;100922.77;;;20.25;100.00
13367;BME280;6752;52.612;13.630;2023-06-22T22:15:29;100897.30;;;20.44;100.00
13367;BME280;6752;52.612;13.630;2023-06-22T22:20:31;100885.93;;;20.48;100.00
13367;BME280;6752;52.612;13.630;2023-06-22T22:25:33;100898.81;;;20.45;100.00
13367;BME280;6752;52.612;13.630;2023-06-22T22:30:35;100871.41;;;20.36;100.00
13367;BME280;6752;52.612;13.630;2023-06-22T22:35:41;100835.22;;;20.12;100.00
13367;BME280;6752;52.612;13.630;2023-06-22T22:40:40;100795.67;;;19.99;100.00
13367;BME280;6752;52.612;13.630;2023-06-22T22:45:43;100746.67;;;19.65;100.00
13367;BME280;6752;52.612;13.630;2023-06-22T22:50:45;100717.06;;;19.40;100.00
13367;BME280;6752;52.612;13.630;2023-06-22T22:55:50;100680.89;;;19.13;100.00
13367;BME280;6752;52.612;13.630;2023-06-22T23:00:55;100663.39;;;18.73;100.00
13367;BME280;6752;52.612;13.630;2023-06-22T23:05:58;100647.34;;;18.62;100.00
13367;BME280;6752;52.612;13.630;2023-06-22T23:11:00;100650.22;;;18.56;100.00
13367;BME280;6752;52.612;13.630;2023-06-22T23:16:03;100624.27;;;18.60;100.00
13367;BME280;6752;52.612;13.630;2023-06-22T23:21:05;100592.25;;;18.59;100.00
13367;BME280;6752;52.612;13.630;2023-06-22T23:26:07;100570.72;;;18.53;100.00
13367;BME280;6752;52.612;13.630;2023-06-22T23:31:09;100573.77;;;18.49;100.00
13367;BME280;6752;52.612;13.630;2023-06-22T23:36:12;100600.66;;;18.33;100.00
13367;BME280;6752;52.612;13.630;2023-06-22T23:41:14;100576.36;;;18.43;100.00
13367;BME280;6752;52.612;13.630;2023-06-22T23:46:16;100553.33;;;18.40;100.00
13367;BME280;6752;52.612;13.630;2023-06-22T23:51:22;100537.47;;;18.34;100.00
13367;BME280;6752;52.612;13.630;2023-06-22T23:56:24;100566.14;;;18.20;100.00
